Time;durP1;ratioP1;P1;durP2;ratioP2;P2;SDS_P1;SDS_P2;PMS_P1;PMS_P2;Temp;Humidity;BMP_temperature;BMP_pressure;BME280_temperature;BME280_humidity;BME280_pressure;Samples;Min_cycle;Max_cycle;Signal;HPM_P1;HPM_P2
2023/01/11 00:01:06;;;;;;;;;;;;;;;7.66;59.69;99212.38;4468197;32;34891;-94
2023/01/11 00:03:34;;;;;;;;;;;;;;;7.61;59.02;99201.03;4469937;32;34898;-85
2023/01/11 00:06:01;;;;;;;;;;;;;;;7.65;59.06;99202.00;4468938;32;34222;-88
2023/01/11 00:08:28;;;;;;;;;;;;;;;7.16;60.62;99211.03;4483966;32;33717;-82
2023/01/11 00:10:56;;;;;;;;;;;;;;;7.34;60.21;99215.81;4482519;32;33839;-92
2023/01/11 00:13:23;;;;;;;;;;;;;;;6.72;61.70;99206.41;4479751;32;34678;-90
2023/01/11 00:15:50;;;;;;;;;;;;;;;6.53;62.43;99227.31;4468224;32;33960;-91
2023/01/11 00:18:17;;;;;;;;;;;;;;;6.90;61.69;99212.94;4471800;32;34188;-86
2023/01/11 00:20:45;;;;;;;;;;;;;;;6.57;62.40;99221.44;4483913;32;33792;-81
2023/01/11 00:23:12;;;;;;;;;;;;;;;6.20;63.53;99222.00;4483470;32;34146;-81
2023/01/11 00:25:39;;;;;;;;;;;;;;;6.71;62.26;99227.00;4483448;32;34248;-82
2023/01/11 00:28:08;;;;;;;;;;;;;;;6.51;62.41;99227.25;4482056;32;33112;-80
2023/01/11 00:30:35;;;;;;;;;;;;;;;7.44;59.86;99230.72;4481770;32;34998;-82
2023/01/11 00:33:02;;;;;;;;;;;;;;;6.75;61.10;99219.38;4472116;32;35436;-87
2023/01/11 00:35:30;;;;;;;;;;;;;;;6.88;61.05;99230.03;4483341;32;34161;-81
2023/01/11 00:37:57;;;;;;;;;;;;;;;6.83;60.76;99220.47;4469553;32;33361;-88
2023/01/11 00:40:25;;;;;;;;;;;;;;;7.11;59.69;99234.13;4467792;32;34150;-80
2023/01/11 00:48:43;;;;;;;;;;;;;;;5.78;63.60;99242.94;4483483;32;34314;-82
2023/01/11 00:51:10;;;;;;;;;;;;;;;6.06;63.69;99244.75;4478876;32;34090;-84
2023/01/11 00:53:37;;;;;;;;;;;;;;;6.95;60.84;99245.72;4476838;32;34406;-93
2023/01/11 00:56:05;;;;;;;;;;;;;;;6.61;61.06;99249.03;4483537;32;34142;-92
2023/01/11 00:58:32;;;;;;;;;;;;;;;6.55;61.63;99251.41;4478625;32;33159;-82
2023/01/11 01:01:04;;;;;;;;;;;;;;;7.13;59.51;99247.94;4471748;32;34654;-82
2023/01/11 01:03:32;;;;;;;;;;;;;;;6.01;63.42;99248.88;4469256;32;34348;-90
2023/01/11 01:05:59;;;;;;;;;;;;;;;6.24;62.69;99236.72;4468946;32;34313;-82
2023/01/11 01:08:26;;;;;;;;;;;;;;;5.87;64.22;99248.38;4481678;32;34157;-92
2023/01/11 01:10:54;;;;;;;;;;;;;;;6.72;61.20;99245.06;4480220;32;34017;-82
2023/01/11 01:16:08;;;;;;;;;;;;;;;6.24;63.28;99244.44;4468067;32;34227;-83
2023/01/11 01:18:35;;;;;;;;;;;;;;;6.89;60.66;99232.66;4482600;32;32933;-93
2023/01/11 01:21:02;;;;;;;;;;;;;;;6.91;60.39;99232.72;4476893;32;34056;-83
2023/01/11 01:23:30;;;;;;;;;;;;;;;6.23;62.31;99233.28;4476071;32;34557;-84
2023/01/11 01:25:57;;;;;;;;;;;;;;;6.38;62.23;99235.47;4483383;32;34326;-89
2023/01/11 01:28:24;;;;;;;;;;;;;;;6.36;62.42;99228.50;4483314;32;34067;-89
2023/01/11 01:30:51;;;;;;;;;;;;;;;6.76;60.95;99220.25;4479940;32;34209;-90
2023/01/11 01:33:18;;;;;;;;;;;;;;;5.93;63.59;99233.19;4467965;32;34295;-94
2023/01/11 01:35:46;;;;;;;;;;;;;;;6.17;62.84;99233.06;4481147;32;34104;-81
2023/01/11 01:38:13;;;;;;;;;;;;;;;5.80;64.19;99237.03;4482249;32;34120;-93
2023/01/11 01:40:41;;;;;;;;;;;;;;;6.20;62.85;99237.47;4480352;32;34173;-93
2023/01/11 01:43:09;;;;;;;;;;;;;;;6.25;62.52;99235.91;4483304;32;34507;-94
2023/01/11 01:45:37;;;;;;;;;;;;;;;6.30;62.57;99229.19;4468484;32;34308;-90
2023/01/11 01:48:05;;;;;;;;;;;;;;;5.86;63.94;99241.50;4483206;32;33484;-82
2023/01/11 01:50:32;;;;;;;;;;;;;;;5.74;64.75;99247.13;4466692;32;34182;-86
2023/01/11 01:53:19;;;;;;;;;;;;;;;6.14;62.97;99243.31;4475404;32;34319;-85
2023/01/11 01:55:54;;;;;;;;;;;;;;;6.38;62.23;99248.34;4467613;32;34255;-93
2023/01/11 01:58:24;;;;;;;;;;;;;;;5.75;64.30;99246.28;4467763;32;33559;-90
2023/01/11 02:00:51;;;;;;;;;;;;;;;6.16;63.09;99249.34;4464094;32;34763;-82
2023/01/11 02:03:20;;;;;;;;;;;;;;;6.05;63.52;99253.28;4466534;32;34463;-80
2023/01/11 02:05:47;;;;;;;;;;;;;;;5.82;64.25;99248.25;4466092;32;34231;-81
2023/01/11 02:08:25;;;;;;;;;;;;;;;6.43;62.39;99243.31;4483189;32;34032;-82
2023/01/11 02:10:53;;;;;;;;;;;;;;;6.02;64.13;99253.19;4482805;32;34226;-82
2023/01/11 02:13:20;;;;;;;;;;;;;;;6.62;61.67;99244.75;4464243;32;34113;-93
2023/01/11 02:16:06;;;;;;;;;;;;;;;6.23;62.85;99253.87;4468135;32;34031;-83
2023/01/11 02:18:34;;;;;;;;;;;;;;;5.77;64.56;99247.22;4470985;32;33339;-83
2023/01/11 02:21:21;;;;;;;;;;;;;;;6.26;63.26;99253.97;4467657;32;34708;-81
2023/01/11 02:24:07;;;;;;;;;;;;;;;6.00;63.26;99252.28;4468216;32;34541;-82
2023/01/11 02:26:34;;;;;;;;;;;;;;;5.59;65.11;99250.03;4480426;32;34056;-87
2023/01/11 02:29:02;;;;;;;;;;;;;;;5.45;65.90;99255.53;4482457;32;33408;-88
2023/01/11 02:31:47;;;;;;;;;;;;;;;5.42;65.28;99258.00;4478883;32;34259;-90
2023/01/11 02:34:33;;;;;;;;;;;;;;;6.52;61.94;99256.50;4467502;32;34169;-88
2023/01/11 02:37:03;;;;;;;;;;;;;;;5.74;64.33;99267.69;4481044;32;33632;-93
2023/01/11 02:39:33;;;;;;;;;;;;;;;6.29;62.77;99268.66;4481994;32;32786;-85
2023/01/11 02:45:00;;;;;;;;;;;;;;;6.00;63.71;99265.16;4482123;32;33886;-82
2023/01/11 02:47:30;;;;;;;;;;;;;;;6.59;61.51;99258.41;4466062;32;34118;-91
2023/01/11 02:50:01;;;;;;;;;;;;;;;6.23;62.89;99269.31;4465449;32;33189;-83
2023/01/11 02:52:55;;;;;;;;;;;;;;;6.36;62.45;99269.69;4457394;32;34156;-86
2023/01/11 02:55:24;;;;;;;;;;;;;;;6.29;62.88;99276.37;4436207;32;34635;-84
2023/01/11 02:57:52;;;;;;;;;;;;;;;6.77;61.64;99273.53;4451974;32;35073;-81
2023/01/11 03:00:19;;;;;;;;;;;;;;;6.19;62.62;99275.19;4464742;32;34054;-82
2023/01/11 03:02:46;;;;;;;;;;;;;;;5.70;63.68;99278.72;4462536;32;34977;-82
2023/01/11 03:05:14;;;;;;;;;;;;;;;6.21;62.48;99276.16;4460127;32;33882;-90
2023/01/11 03:07:45;;;;;;;;;;;;;;;6.39;61.75;99270.66;4451974;32;33746;-87
2023/01/11 03:10:17;;;;;;;;;;;;;;;6.04;63.50;99274.72;4455646;32;33357;-81
2023/01/11 03:13:03;;;;;;;;;;;;;;;5.53;64.63;99261.81;4435239;32;33905;-88
2023/01/11 03:15:30;;;;;;;;;;;;;;;6.16;62.54;99267.38;4451202;32;33506;-78
2023/01/11 03:18:13;;;;;;;;;;;;;;;5.58;63.83;99262.88;4453040;32;34445;-91
2023/01/11 03:20:43;;;;;;;;;;;;;;;5.41;65.42;99272.56;4450426;32;33528;-80
2023/01/11 03:23:13;;;;;;;;;;;;;;;5.78;64.40;99272.13;4452691;32;34293;-83
2023/01/11 03:26:13;;;;;;;;;;;;;;;6.14;62.48;99275.88;4467053;32;34434;-92
2023/01/11 03:28:58;;;;;;;;;;;;;;;5.22;65.94;99286.47;4422290;32;35349;-91
2023/01/11 03:31:33;;;;;;;;;;;;;;;5.26;66.03;99293.44;4449577;32;34451;-84
2023/01/11 03:34:07;;;;;;;;;;;;;;;6.42;62.36;99298.22;4457164;32;35042;-92
2023/01/11 03:36:37;;;;;;;;;;;;;;;6.39;62.18;99309.31;4461492;32;34817;-82
2023/01/11 03:39:10;;;;;;;;;;;;;;;6.78;60.70;99307.09;4466954;32;34030;-82
2023/01/11 03:41:38;;;;;;;;;;;;;;;6.44;61.27;99306.84;4455317;32;33100;-82
2023/01/11 03:44:06;;;;;;;;;;;;;;;6.09;62.86;99324.63;4452623;32;33579;-90
2023/01/11 03:46:33;;;;;;;;;;;;;;;6.49;61.73;99320.78;4460769;32;33824;-87
2023/01/11 03:49:02;;;;;;;;;;;;;;;7.24;59.28;99323.91;4460328;32;34309;-86
2023/01/11 03:51:30;;;;;;;;;;;;;;;6.22;62.35;99334.53;4459037;32;33406;-83
2023/01/11 03:53:58;;;;;;;;;;;;;;;7.11;59.11;99314.06;4452912;32;33786;-88
2023/01/11 03:56:31;;;;;;;;;;;;;;;6.73;60.32;99308.63;4454179;32;34194;-85
2023/01/11 03:58:58;;;;;;;;;;;;;;;6.59;60.85;99309.91;4464715;32;34377;-89
2023/01/11 04:01:25;;;;;;;;;;;;;;;7.06;59.19;99300.16;4443623;32;33992;-93
2023/01/11 04:03:53;;;;;;;;;;;;;;;6.70;60.47;99302.50;4453364;32;34074;-86
2023/01/11 04:06:20;;;;;;;;;;;;;;;6.85;59.92;99289.22;4456018;32;35393;-89
2023/01/11 04:08:47;;;;;;;;;;;;;;;6.09;61.92;99286.88;4455611;32;34986;-85
2023/01/11 04:11:15;;;;;;;;;;;;;;;6.58;60.62;99279.84;4450855;32;33514;-82
2023/01/11 04:13:42;;;;;;;;;;;;;;;7.06;59.37;99279.53;4453066;32;33929;-81
2023/01/11 04:16:09;;;;;;;;;;;;;;;6.33;61.12;99285.94;4453579;32;34192;-87
2023/01/11 04:18:36;;;;;;;;;;;;;;;7.09;59.38;99287.38;4467647;32;33900;-93
2023/01/11 04:21:04;;;;;;;;;;;;;;;6.71;60.34;99281.97;4460874;32;33226;-82
2023/01/11 04:23:31;;;;;;;;;;;;;;;6.86;59.66;99284.13;4460224;32;34700;-81
2023/01/11 04:25:58;;;;;;;;;;;;;;;7.39;57.97;99291.63;4461919;32;34500;-91
2023/01/11 04:28:25;;;;;;;;;;;;;;;7.10;58.30;99294.25;4456507;32;33694;-81
2023/01/11 04:30:52;;;;;;;;;;;;;;;6.69;60.05;99306.81;4458734;32;33087;-90
2023/01/11 04:33:20;;;;;;;;;;;;;;;6.66;59.88;99304.12;4466044;32;35097;-93
2023/01/11 04:35:48;;;;;;;;;;;;;;;7.01;59.48;99309.47;4453311;32;34240;-81
2023/01/11 04:38:15;;;;;;;;;;;;;;;7.99;55.94;99318.19;4459213;32;33931;-82
2023/01/11 04:40:43;;;;;;;;;;;;;;;8.29;54.62;99319.75;4462191;32;33819;-81
2023/01/11 04:43:10;;;;;;;;;;;;;;;7.59;56.74;99324.00;4463829;32;34095;-87
2023/01/11 04:45:37;;;;;;;;;;;;;;;6.83;58.56;99315.81;4450810;32;33856;-93
2023/01/11 04:48:05;;;;;;;;;;;;;;;6.57;60.49;99325.34;4467936;32;34104;-82
2023/01/11 04:50:32;;;;;;;;;;;;;;;7.29;57.71;99305.97;4458769;32;33284;-91
2023/01/11 04:52:59;;;;;;;;;;;;;;;7.77;56.40;99303.84;4452536;32;34259;-85
2023/01/11 04:55:26;;;;;;;;;;;;;;;6.38;60.26;99317.84;4464656;32;35226;-82
2023/01/11 04:57:53;;;;;;;;;;;;;;;6.89;59.02;99317.69;4451802;32;34895;-93
2023/01/11 05:00:21;;;;;;;;;;;;;;;7.29;58.11;99311.12;4452563;32;33477;-82
2023/01/11 05:02:48;;;;;;;;;;;;;;;6.79;59.43;99314.00;4451545;32;33901;-82
2023/01/11 05:05:15;;;;;;;;;;;;;;;6.34;60.94;99309.16;4451416;32;34113;-81
2023/01/11 05:07:42;;;;;;;;;;;;;;;6.90;58.75;99303.12;4452327;32;33838;-86
2023/01/11 05:10:10;;;;;;;;;;;;;;;5.82;61.88;99302.25;4450720;32;33102;-87
2023/01/11 05:12:37;;;;;;;;;;;;;;;6.65;60.08;99299.81;4449033;32;33335;-81
2023/01/11 05:15:05;;;;;;;;;;;;;;;5.92;62.08;99312.88;4449648;32;34369;-81
2023/01/11 05:17:32;;;;;;;;;;;;;;;5.45;63.30;99310.41;4455518;32;35023;-93
2023/01/11 05:19:59;;;;;;;;;;;;;;;6.04;61.94;99326.19;4452070;32;32985;-93
2023/01/11 05:22:26;;;;;;;;;;;;;;;6.42;60.63;99340.31;4449476;32;33776;-84
2023/01/11 05:24:54;;;;;;;;;;;;;;;7.06;58.66;99328.53;4451618;32;34127;-93
2023/01/11 05:27:21;;;;;;;;;;;;;;;6.43;60.08;99325.72;4450675;32;35066;-94
2023/01/11 05:29:50;;;;;;;;;;;;;;;6.64;59.51;99308.37;4461632;32;33704;-82
2023/01/11 05:32:17;;;;;;;;;;;;;;;5.90;61.88;99319.66;4448148;32;34632;-81
2023/01/11 05:34:44;;;;;;;;;;;;;;;6.15;60.50;99335.12;4452367;32;34331;-92
2023/01/11 05:37:13;;;;;;;;;;;;;;;5.94;61.79;99331.84;4452335;32;33724;-82
2023/01/11 05:39:40;;;;;;;;;;;;;;;6.11;61.48;99325.56;4450989;32;34135;-91
2023/01/11 05:42:07;;;;;;;;;;;;;;;7.01;58.07;99325.81;4447577;32;34018;-81
2023/01/11 05:47:24;;;;;;;;;;;;;;;7.44;56.77;99332.19;4451894;32;34306;-82
2023/01/11 05:49:51;;;;;;;;;;;;;;;6.26;59.68;99323.50;4474651;32;34305;-92
2023/01/11 05:52:18;;;;;;;;;;;;;;;6.42;59.83;99317.13;4479931;32;34052;-87
2023/01/11 05:54:46;;;;;;;;;;;;;;;6.52;58.73;99326.03;4478209;32;35146;-92
2023/01/11 05:57:13;;;;;;;;;;;;;;;5.73;61.45;99332.84;4477086;32;34452;-92
2023/01/11 05:59:40;;;;;;;;;;;;;;;6.51;59.60;99321.69;4480658;32;33588;-92
2023/01/11 06:02:07;;;;;;;;;;;;;;;6.72;58.69;99304.31;4468458;32;34246;-81
2023/01/11 06:04:35;;;;;;;;;;;;;;;6.76;58.32;99300.13;4467451;32;34511;-82
2023/01/11 06:07:02;;;;;;;;;;;;;;;7.25;57.13;99305.00;4468055;32;34011;-83
2023/01/11 06:09:30;;;;;;;;;;;;;;;7.57;55.97;99300.72;4467578;32;33244;-88
2023/01/11 06:11:57;;;;;;;;;;;;;;;7.02;57.31;99306.06;4476218;32;33789;-81
2023/01/11 06:14:24;;;;;;;;;;;;;;;6.26;59.62;99320.91;4475326;32;34184;-81
2023/01/11 06:16:51;;;;;;;;;;;;;;;6.90;58.03;99319.47;4473952;32;35116;-81
2023/01/11 06:19:19;;;;;;;;;;;;;;;5.76;61.42;99325.22;4482845;32;33149;-84
2023/01/11 06:21:46;;;;;;;;;;;;;;;7.85;55.43;99318.66;4482714;32;35041;-89
2023/01/11 06:24:13;;;;;;;;;;;;;;;7.82;55.01;99336.63;4482717;32;35231;-82
2023/01/11 06:26:40;;;;;;;;;;;;;;;7.93;54.81;99336.09;4484252;32;35419;-82
2023/01/11 06:29:08;;;;;;;;;;;;;;;7.54;55.75;99333.34;4484781;32;32987;-93
2023/01/11 06:31:35;;;;;;;;;;;;;;;7.13;56.99;99327.88;4484584;32;35658;-85
2023/01/11 06:34:02;;;;;;;;;;;;;;;7.53;55.65;99323.81;4484170;32;34973;-81
2023/01/11 06:36:29;;;;;;;;;;;;;;;7.59;55.44;99326.56;4484241;32;34774;-95
2023/01/11 06:38:57;;;;;;;;;;;;;;;6.90;57.39;99322.03;4470528;32;32405;-92
2023/01/11 06:41:24;;;;;;;;;;;;;;;7.48;55.50;99315.09;4484830;32;34406;-83
2023/01/11 06:43:51;;;;;;;;;;;;;;;8.27;53.15;99318.84;4485108;32;34362;-82
2023/01/11 06:46:19;;;;;;;;;;;;;;;7.80;54.49;99305.59;4484435;32;34235;-92
2023/01/11 06:48:46;;;;;;;;;;;;;;;6.86;57.33;99312.47;4483807;32;33908;-82
2023/01/11 06:51:14;;;;;;;;;;;;;;;7.24;55.62;99318.75;4485244;32;34999;-81
2023/01/11 06:53:42;;;;;;;;;;;;;;;7.08;56.48;99332.00;4484829;32;34595;-92
2023/01/11 06:56:17;;;;;;;;;;;;;;;6.96;57.09;99332.53;4471432;32;32702;-91
2023/01/11 06:58:45;;;;;;;;;;;;;;;6.96;56.89;99340.25;4484940;32;34104;-81
2023/01/11 07:01:14;;;;;;;;;;;;;;;6.44;58.64;99351.53;4484988;32;34159;-93
2023/01/11 07:03:41;;;;;;;;;;;;;;;7.59;55.63;99359.25;4484729;32;35336;-82
2023/01/11 07:06:08;;;;;;;;;;;;;;;6.62;58.54;99360.66;4483875;32;34289;-82
2023/01/11 07:08:37;;;;;;;;;;;;;;;6.64;58.00;99365.03;4484690;32;34144;-92
2023/01/11 07:11:04;;;;;;;;;;;;;;;7.43;55.51;99361.41;4482646;32;34932;-89
2023/01/11 07:13:31;;;;;;;;;;;;;;;8.14;54.04;99369.31;4483286;32;33819;-88
2023/01/11 07:15:59;;;;;;;;;;;;;;;6.54;57.79;99374.16;4485189;32;33786;-86
2023/01/11 07:18:26;;;;;;;;;;;;;;;7.56;55.65;99370.34;4484332;32;33267;-89
2023/01/11 07:20:53;;;;;;;;;;;;;;;7.32;56.36;99378.28;4471184;32;34682;-88
2023/01/11 07:23:21;;;;;;;;;;;;;;;6.80;57.39;99392.16;4472319;32;35595;-89
2023/01/11 07:25:48;;;;;;;;;;;;;;;6.66;57.79;99388.28;4479030;32;34354;-89
2023/01/11 07:28:16;;;;;;;;;;;;;;;6.43;58.79;99390.97;4468935;32;33232;-87
2023/01/11 07:30:43;;;;;;;;;;;;;;;6.22;60.16;99408.31;4469947;32;33878;-90
2023/01/11 07:33:25;;;;;;;;;;;;;;;6.33;59.55;99410.41;4484331;32;35026;-90
2023/01/11 07:35:52;;;;;;;;;;;;;;;7.06;57.46;99411.88;4469798;32;34519;-81
2023/01/11 07:38:19;;;;;;;;;;;;;;;8.07;54.69;99406.16;4483344;32;33826;-79
2023/01/11 07:40:47;;;;;;;;;;;;;;;6.94;57.90;99402.91;4476401;32;33574;-81
2023/01/11 07:43:14;;;;;;;;;;;;;;;7.09;57.14;99408.53;4478926;32;33108;-94
2023/01/11 07:45:43;;;;;;;;;;;;;;;7.92;55.71;99395.44;4481209;32;34227;-94
2023/01/11 07:48:13;;;;;;;;;;;;;;;7.03;57.35;99404.06;4468187;32;34006;-87
2023/01/11 07:50:41;;;;;;;;;;;;;;;7.16;57.29;99402.75;4474077;32;33585;-80
2023/01/11 07:53:11;;;;;;;;;;;;;;;7.46;56.30;99397.59;4476749;32;34205;-90
2023/01/11 07:55:39;;;;;;;;;;;;;;;6.79;58.21;99399.03;4464791;32;34249;-86
2023/01/11 07:58:11;;;;;;;;;;;;;;;7.42;56.32;99394.88;4469297;32;33269;-89
2023/01/11 08:00:39;;;;;;;;;;;;;;;6.48;59.24;99393.72;4465939;32;32573;-92
2023/01/11 08:03:07;;;;;;;;;;;;;;;7.10;57.63;99391.34;4464619;32;34414;-89
2023/01/11 08:05:34;;;;;;;;;;;;;;;7.50;56.49;99399.44;4481094;32;33683;-81
2023/01/11 08:08:01;;;;;;;;;;;;;;;7.95;55.07;99390.31;4482874;32;33496;-81
2023/01/11 08:10:29;;;;;;;;;;;;;;;8.07;55.23;99402.69;4474428;32;34514;-85
2023/01/11 08:16:03;;;;;;;;;;;;;;;8.11;54.60;99413.16;4405668;32;36216;-80
2023/01/11 08:18:30;;;;;;;;;;;;;;;7.56;56.07;99415.06;4404809;32;34058;-78
2023/01/11 08:20:57;;;;;;;;;;;;;;;8.41;54.26;99414.78;4442059;32;33764;-93
2023/01/11 08:23:26;;;;;;;;;;;;;;;7.90;55.57;99410.00;4479930;32;35186;-79
2023/01/11 08:25:55;;;;;;;;;;;;;;;7.19;57.68;99407.09;4470898;32;34826;-93
2023/01/11 08:28:22;;;;;;;;;;;;;;;8.24;55.12;99409.19;4477330;32;34430;-81
2023/01/11 08:30:50;;;;;;;;;;;;;;;8.80;53.35;99408.88;4464009;32;33847;-82
2023/01/11 08:33:17;;;;;;;;;;;;;;;7.46;56.87;99409.59;4481394;32;35222;-81
2023/01/11 08:35:44;;;;;;;;;;;;;;;7.44;56.63;99413.87;4483058;32;34223;-86
2023/01/11 08:38:12;;;;;;;;;;;;;;;7.54;56.99;99416.75;4469610;32;33443;-92
2023/01/11 08:40:39;;;;;;;;;;;;;;;7.53;57.22;99414.13;4478786;32;35136;-82
2023/01/11 08:43:06;;;;;;;;;;;;;;;7.91;56.43;99411.72;4455051;32;896010;-95
2023/01/11 08:45:34;;;;;;;;;;;;;;;7.91;56.06;99412.59;4470915;32;34254;-93
2023/01/11 08:48:01;;;;;;;;;;;;;;;7.76;56.35;99412.19;4484023;32;33472;-79
2023/01/11 08:50:28;;;;;;;;;;;;;;;7.82;56.01;99419.25;4483483;32;35209;-81
2023/01/11 08:52:55;;;;;;;;;;;;;;;7.93;55.75;99407.50;4473706;32;34535;-94
2023/01/11 08:55:23;;;;;;;;;;;;;;;8.94;53.63;99420.38;4468817;32;33950;-94
2023/01/11 08:57:50;;;;;;;;;;;;;;;9.35;51.99;99410.97;4470408;32;33541;-94
2023/01/11 09:00:18;;;;;;;;;;;;;;;9.40;52.18;99411.97;4484202;32;34494;-91
2023/01/11 09:02:45;;;;;;;;;;;;;;;8.09;55.38;99412.22;4484160;32;34269;-94
2023/01/11 09:05:12;;;;;;;;;;;;;;;7.51;57.22;99420.94;4485235;32;35021;-93
2023/01/11 09:07:44;;;;;;;;;;;;;;;7.53;57.33;99427.00;4483933;32;34043;-94
2023/01/11 09:10:11;;;;;;;;;;;;;;;7.52;57.49;99443.31;4484066;32;35096;-95
2023/01/11 09:12:47;;;;;;;;;;;;;;;8.48;54.69;99435.66;4483537;32;34143;-93
2023/01/11 09:15:17;;;;;;;;;;;;;;;9.39;52.38;99430.03;4483726;32;34557;-80
2023/01/11 09:17:45;;;;;;;;;;;;;;;9.38;52.45;99433.47;4483930;32;33531;-88
2023/01/11 09:20:13;;;;;;;;;;;;;;;9.50;52.09;99426.81;4483876;32;34263;-93
2023/01/11 09:22:44;;;;;;;;;;;;;;;9.14;52.39;99437.25;4469653;32;35096;-93
2023/01/11 09:25:11;;;;;;;;;;;;;;;9.86;51.23;99419.78;4483736;32;33972;-82
2023/01/11 09:27:42;;;;;;;;;;;;;;;10.19;50.18;99425.62;4484505;32;33460;-89
2023/01/11 09:30:10;;;;;;;;;;;;;;;8.86;53.60;99427.09;4484257;32;34214;-92
2023/01/11 09:32:38;;;;;;;;;;;;;;;8.97;53.30;99430.81;4469015;32;33751;-88
2023/01/11 09:35:05;;;;;;;;;;;;;;;8.40;55.54;99428.56;4483615;32;34179;-84
2023/01/11 09:37:38;;;;;;;;;;;;;;;8.47;54.92;99431.34;4483979;32;33070;-94
2023/01/11 09:40:17;;;;;;;;;;;;;;;9.27;52.70;99423.75;4483259;32;34110;-79
2023/01/11 09:42:47;;;;;;;;;;;;;;;9.50;52.10;99413.00;4469606;32;35110;-91
2023/01/11 09:45:20;;;;;;;;;;;;;;;8.78;54.05;99427.78;4469524;32;33871;-91
2023/01/11 09:47:50;;;;;;;;;;;;;;;8.98;53.53;99432.59;4472539;32;34225;-84
2023/01/11 09:50:26;;;;;;;;;;;;;;;8.87;53.85;99428.87;4469774;32;34139;-79
2023/01/11 09:52:57;;;;;;;;;;;;;;;7.70;57.01;99423.22;4469645;32;34195;-92
2023/01/11 09:55:32;;;;;;;;;;;;;;;8.33;55.49;99421.44;4469484;32;33883;-93
2023/01/11 09:58:06;;;;;;;;;;;;;;;9.53;52.56;99407.03;4469139;32;33263;-82
2023/01/11 10:00:44;;;;;;;;;;;;;;;8.50;54.99;99415.03;4482754;32;35090;-94
2023/01/11 10:03:16;;;;;;;;;;;;;;;8.46;55.73;99408.94;4483361;32;34209;-81
2023/01/11 10:05:50;;;;;;;;;;;;;;;9.02;54.53;99401.66;4478059;32;34507;-84
2023/01/11 10:08:26;;;;;;;;;;;;;;;9.07;54.21;99395.69;4466635;32;33805;-79
2023/01/11 10:11:20;;;;;;;;;;;;;;;9.89;51.72;99384.47;4474526;32;34939;-81
2023/01/11 10:14:25;;;;;;;;;;;;;;;9.92;51.83;99383.63;4467484;32;34119;-89
2023/01/11 10:17:37;;;;;;;;;;;;;;;8.75;54.58;99388.97;4475803;32;34385;-82
2023/01/11 10:20:33;;;;;;;;;;;;;;;9.96;51.41;99380.25;4460677;32;33232;-85
2023/01/11 10:23:03;;;;;;;;;;;;;;;10.27;50.77;99373.09;4459052;32;34167;-88
2023/01/11 10:25:41;;;;;;;;;;;;;;;10.11;51.41;99374.50;4462262;32;34471;-80
2023/01/11 10:28:23;;;;;;;;;;;;;;;9.42;53.36;99375.75;4469706;32;35023;-92
2023/01/11 10:41:56;;;;;;;;;;;;;;;11.02;49.92;99382.03;4468012;32;34073;-92
2023/01/11 10:44:30;;;;;;;;;;;;;;;10.67;50.75;99383.25;4456590;32;33701;-95
2023/01/11 10:46:59;;;;;;;;;;;;;;;9.78;53.00;99387.72;4467197;32;34431;-93
2023/01/11 10:49:33;;;;;;;;;;;;;;;10.52;51.56;99392.50;4462888;32;34020;-80
2023/01/11 10:52:05;;;;;;;;;;;;;;;10.33;52.05;99383.56;4473855;32;33529;-81
2023/01/11 10:54:35;;;;;;;;;;;;;;;11.09;50.03;99373.50;4464752;32;33651;-81
2023/01/11 10:57:12;;;;;;;;;;;;;;;9.77;53.02;99378.16;4476520;32;35173;-87
2023/01/11 10:59:41;;;;;;;;;;;;;;;10.47;51.24;99389.84;4453211;32;34161;-80
2023/01/11 11:02:35;;;;;;;;;;;;;;;10.12;51.60;99369.34;4476231;32;33056;-93
2023/01/11 11:05:09;;;;;;;;;;;;;;;9.79;51.82;99363.56;4475417;32;33863;-82
2023/01/11 11:07:40;;;;;;;;;;;;;;;9.98;52.44;99368.22;4467144;32;35106;-94
2023/01/11 11:10:11;;;;;;;;;;;;;;;9.51;53.12;99368.19;4467885;32;33698;-80
2023/01/11 11:12:40;;;;;;;;;;;;;;;10.26;51.50;99367.00;4483431;32;33374;-88
2023/01/11 11:15:10;;;;;;;;;;;;;;;10.70;50.38;99367.75;4469335;32;35004;-93
2023/01/11 11:17:38;;;;;;;;;;;;;;;11.22;48.99;99357.25;4471502;32;34540;-90
2023/01/11 11:20:10;;;;;;;;;;;;;;;11.83;47.08;99354.50;4466329;32;34233;-88
2023/01/11 11:22:38;;;;;;;;;;;;;;;10.64;49.71;99353.81;4469148;32;33148;-81
2023/01/11 11:25:12;;;;;;;;;;;;;;;10.94;49.35;99345.59;4479898;32;34081;-86
2023/01/11 11:27:59;;;;;;;;;;;;;;;10.96;49.39;99330.94;4466712;32;34371;-91
2023/01/11 11:30:28;;;;;;;;;;;;;;;11.30;48.41;99326.22;4484019;32;33961;-96
2023/01/11 11:32:57;;;;;;;;;;;;;;;11.11;48.40;99332.88;4466463;32;33335;-82
2023/01/11 11:35:37;;;;;;;;;;;;;;;10.91;49.24;99337.78;4457102;32;34319;-80
2023/01/11 11:38:05;;;;;;;;;;;;;;;10.98;49.32;99333.56;4484183;32;34324;-79
2023/01/11 11:40:36;;;;;;;;;;;;;;;11.14;48.81;99338.13;4454258;32;34458;-79
2023/01/11 11:43:10;;;;;;;;;;;;;;;10.68;50.20;99340.94;4467491;32;34111;-80
2023/01/11 11:45:48;;;;;;;;;;;;;;;11.71;47.93;99346.59;4473075;32;34176;-92
2023/01/11 11:48:15;;;;;;;;;;;;;;;11.44;47.97;99342.84;4484365;32;34260;-81
2023/01/11 11:50:43;;;;;;;;;;;;;;;11.26;49.02;99337.41;4469730;32;35274;-93
2023/01/11 11:53:16;;;;;;;;;;;;;;;10.73;49.86;99345.31;4470441;32;33638;-89
2023/01/11 11:55:44;;;;;;;;;;;;;;;10.70;49.79;99351.31;4456604;32;34087;-91
2023/01/11 11:58:11;;;;;;;;;;;;;;;11.38;48.58;99347.94;4480264;32;34971;-88
2023/01/11 12:00:46;;;;;;;;;;;;;;;10.93;49.23;99344.75;4460342;32;34916;-83
2023/01/11 12:03:29;;;;;;;;;;;;;;;11.12;47.87;99345.00;4474640;32;34136;-87
2023/01/11 12:05:57;;;;;;;;;;;;;;;12.03;45.41;99349.53;4468326;32;34059;-92
2023/01/11 12:08:24;;;;;;;;;;;;;;;12.26;45.13;99353.22;4454052;32;34511;-80
2023/01/11 12:10:57;;;;;;;;;;;;;;;11.10;48.21;99355.38;4454333;32;34875;-88
2023/01/11 12:13:26;;;;;;;;;;;;;;;12.40;45.44;99350.75;4458083;32;34294;-91
2023/01/11 12:15:57;;;;;;;;;;;;;;;12.84;44.76;99347.59;4482177;32;35576;-92
2023/01/11 12:18:24;;;;;;;;;;;;;;;13.33;42.59;99337.47;4473385;32;34128;-91
2023/01/11 12:20:52;;;;;;;;;;;;;;;13.06;43.21;99338.19;4473699;32;35003;-91
2023/01/11 12:23:20;;;;;;;;;;;;;;;11.99;45.63;99337.37;4479230;32;34378;-87
2023/01/11 12:25:54;;;;;;;;;;;;;;;12.58;43.33;99340.50;4483249;32;34050;-91
2023/01/11 12:28:29;;;;;;;;;;;;;;;11.58;46.11;99340.38;4472978;32;34565;-92
2023/01/11 12:31:01;;;;;;;;;;;;;;;12.56;44.30;99349.16;4461059;32;34866;-88
2023/01/11 12:33:34;;;;;;;;;;;;;;;13.09;42.82;99341.69;4475269;32;33493;-91
2023/01/11 12:36:05;;;;;;;;;;;;;;;12.49;43.63;99356.03;4474450;32;34713;-83
2023/01/11 12:38:51;;;;;;;;;;;;;;;13.33;42.01;99346.19;4476531;32;34014;-88
2023/01/11 12:41:42;;;;;;;;;;;;;;;13.38;41.75;99346.22;4475997;32;34237;-93
2023/01/11 12:44:14;;;;;;;;;;;;;;;12.77;42.62;99346.72;4470151;32;34223;-81
2023/01/11 12:46:50;;;;;;;;;;;;;;;13.11;42.40;99339.97;4456128;32;34247;-92
2023/01/11 12:49:36;;;;;;;;;;;;;;;13.40;42.14;99339.25;4459463;32;34160;-90
2023/01/11 12:52:13;;;;;;;;;;;;;;;12.77;43.46;99351.91;4473010;32;33557;-82
2023/01/11 12:55:00;;;;;;;;;;;;;;;12.94;42.95;99349.41;4471579;32;34169;-86
2023/01/11 12:57:33;;;;;;;;;;;;;;;12.50;44.33;99351.69;4472684;32;34051;-89
2023/01/11 13:00:12;;;;;;;;;;;;;;;13.37;42.69;99344.44;4454606;32;34456;-87
2023/01/11 13:02:48;;;;;;;;;;;;;;;12.83;43.53;99340.66;4454051;32;34840;-92
2023/01/11 13:05:26;;;;;;;;;;;;;;;13.00;43.48;99339.03;4473896;32;33460;-91
2023/01/11 13:08:11;;;;;;;;;;;;;;;13.27;42.94;99337.47;4461611;32;34084;-83
2023/01/11 13:10:57;;;;;;;;;;;;;;;12.97;43.08;99341.62;4465019;32;33943;-92
2023/01/11 13:13:43;;;;;;;;;;;;;;;13.31;42.62;99332.28;4483879;32;34061;-94
2023/01/11 13:16:13;;;;;;;;;;;;;;;13.64;42.45;99338.50;4483790;32;32803;-82
2023/01/11 13:18:48;;;;;;;;;;;;;;;13.04;44.67;99334.72;4469213;32;35023;-94
2023/01/11 13:21:36;;;;;;;;;;;;;;;13.36;42.74;99338.37;4469330;32;34302;-85
2023/01/11 13:24:13;;;;;;;;;;;;;;;13.81;42.29;99341.12;4469238;32;33925;-81
2023/01/11 13:26:41;;;;;;;;;;;;;;;13.25;43.09;99340.06;4469113;32;33261;-80
2023/01/11 13:29:10;;;;;;;;;;;;;;;13.01;43.42;99347.72;4465479;32;35178;-82
2023/01/11 13:31:37;;;;;;;;;;;;;;;12.89;43.98;99353.72;4468995;32;34376;-92
2023/01/11 13:34:13;;;;;;;;;;;;;;;13.47;42.69;99353.19;4482636;32;34325;-85
2023/01/11 13:36:44;;;;;;;;;;;;;;;12.81;43.98;99355.41;4483360;32;33420;-81
2023/01/11 13:39:16;;;;;;;;;;;;;;;13.28;43.27;99354.84;4483031;32;34591;-91
2023/01/11 13:41:48;;;;;;;;;;;;;;;13.65;43.18;99352.38;4483493;32;34450;-84